• Join FlightAware (Why Join?)
  • Login
  • US Flag 
11:35PM EDT


 

Airport Tracker/Info


-or-


 

Live Flight TrackerFlight Track Log ✈ N747NA ✈ 16-Apr-2013 ✈ KPMD - KPMD

Flight Track Log - Related Links

Times and Time Zones

All times are in EDT time to prevent confusion due to time zone crossing. See the N747NA flight status page for this flight to view local times or setup timezone preferences in your user account.

Time Position Orientation Groundspeed Altitude Reporting Facility
EDT Latitude Longitude Course Direction KTS MPH feet Rate Location/Type
10:26PM 34.6306 -118.1044 275° West 187 215 2,600  Level Los Angeles Center
10:27PM 34.6344 -118.1631 275° West 236 272 3,800 1,320 Climbing Los Angeles Center
10:28PM 34.6908 -118.1319 24° Northeast 270 311 5,400 2,100 Climbing Los Angeles Center
10:29PM 34.6725 -118.0328 103° East 293 337 8,200 2,280 Climbing Los Angeles Center
10:30PM 34.6669 -117.9253 94° East 315 362 10,100 1,560 Climbing Los Angeles Center
10:31PM 34.6800 -117.8097 82° East 352 405 11,400 1,320 Climbing Los Angeles Center
10:32PM 34.7089 -117.6561 77° East 392 451 12,900 780 Climbing Los Angeles Center
10:33PM 34.7336 -117.5242 77° East 403 464 13,000  Climbing Los Angeles Center
10:34PM 34.7572 -117.3914 78° East 405 466 13,000 1,020 Level Los Angeles Center
10:35PM 34.7808 -117.2572 78° East 408 470 15,200 1,620 Climbing Los Angeles Center
10:36PM 34.8047 -117.1172 78° East 420 483 16,400 1,140 Climbing Los Angeles Center
10:37PM 34.8306 -116.9683 78° East 437 503 17,600 1,080 Climbing Los Angeles Center
10:38PM 34.8603 -116.8100 77° East 467 537 18,700 1,260 Climbing Los Angeles Center
10:39PM 34.8892 -116.6453 78° East 493 567 20,300 1,680 Climbing Los Angeles Center
10:40PM 34.9228 -116.4431 78° East 506 582 22,200 1,620 Climbing Los Angeles Center
10:41PM 34.9514 -116.2733 78° East 511 588 23,700 1,320 Climbing Los Angeles Center
10:42PM 34.9806 -116.0986 78° East 521 600 25,000 1,020 Climbing Los Angeles Center
10:43PM 35.0114 -115.9186 78° East 539 620 25,800 780 Climbing Los Angeles Center
10:44PM 35.0406 -115.7311 79° East 559 643 26,600 780 Climbing Los Angeles Center
10:45PM 35.0722 -115.5419 78° East 567 652 27,400 900 Climbing Los Angeles Center
10:47PM 35.1094 -115.3092 79° East 580 667 28,500 840 Climbing Los Angeles Center
10:48PM 35.1367 -115.1356 79° East 588 677 29,200 780 Climbing Los Angeles Center
10:49PM 35.2644 -114.9831 44° Northeast 564 649 30,200 720 Climbing Los Angeles Center
10:50PM 35.3789 -115.0342 340° North 455 524 30,700 600 Climbing Los Angeles Center
10:51PM 35.4781 -115.1128 327° Northwest 425 489 31,500 480 Climbing Los Angeles Center
10:52PM 35.5536 -115.1819 323° Northwest 422 486 31,800 360 Climbing Los Angeles Center
10:53PM 35.6706 -115.2886 323° Northwest 435 501 32,300 480 Climbing Los Angeles Center
10:54PM 35.7708 -115.3775 324° Northwest 440 506 32,800 420 Climbing Los Angeles Center
10:55PM 35.8692 -115.4706 323° Northwest 443 510 33,200 360 Climbing Los Angeles Center
10:56PM 35.9414 -115.5919 306° West 435 501 33,600 300 Climbing Los Angeles Center
10:57PM 35.9831 -115.7303 290° West 427 491 33,900 300 Climbing Los Angeles Center
10:58PM 36.0050 -115.8756 281° West 427 491 34,300 240 Climbing Los Angeles Center
10:59PM 36.0292 -116.0239 281° West 432 497 34,400 300 Climbing Los Angeles Center
11:00PM 36.0506 -116.1714 280° West 437 503 35,000 240 Climbing Los Angeles Center
11:01PM 36.0761 -116.3183 282° West 433 498 35,000  Level Los Angeles Center
11:02PM 36.1050 -116.4911 282° West 431 496 35,000  Level Los Angeles Center
11:03PM 36.1250 -116.6314 280° West 427 491 35,000  Level Los Angeles Center
11:04PM 36.1436 -116.7731 279° West 424 488 35,000  Level Los Angeles Center
11:05PM 36.1631 -116.9169 280° West 423 487 35,000  Level Los Angeles Center
11:06PM 36.1819 -117.0642 279° West 427 491 35,000 240 Level Los Angeles Center
11:07PM 36.2003 -117.2103 279° West 432 497 35,500 240 Climbing Los Angeles Center
11:08PM 36.2194 -117.3569 279° West 432 497 35,600 120 Climbing Los Angeles Center
11:09PM 36.2411 -117.5350 279° West 436 502 35,800 180 Climbing Los Angeles Center
11:10PM 36.2589 -117.6847 278° West 438 504 36,000 60 Climbing Los Angeles Center
11:11PM 36.2744 -117.8333 277° West 439 505 36,000  Level Los Angeles Center
11:12PM 36.2900 -117.9817 277° West 438 504 36,000  Level Los Angeles Center
11:13PM 36.3033 -118.1408 276° West 439 505 36,000  Level Oakland Center
11:14PM 36.3203 -118.2969 278° West 438 504 36,000  Level Oakland Center
11:15PM 36.3336 -118.4464 276° West 439 505 36,000 -60 Level Oakland Center
11:16PM 36.3475 -118.5961 277° West 439 505 35,900  Descending Oakland Center
11:17PM 36.3600 -118.7444 276° West 435 501 36,000  Climbing Oakland Center
11:18PM 36.3736 -118.8936 277° West 438 504 36,000  Level Oakland Center
11:19PM 36.3844 -119.0425 275° West 434 499 36,000  Level Oakland Center
11:20PM 36.3958 -119.1928 275° West 439 505 36,000  Level Oakland Center
11:21PM 36.4106 -119.3719 276° West 437 503 36,000  Level Oakland Center
11:22PM 36.4211 -119.5225 275° West 441 507 36,000  Level Oakland Center
11:23PM 36.4325 -119.6731 275° West 440 506 36,000 -60 Level Oakland Center
11:24PM 36.3908 -119.8161 250° West 450 518 35,900  Descending Oakland Center
11:25PM 36.3303 -119.9539 241° Southwest 456 525 36,000  Climbing Oakland Center
11:26PM 36.2703 -120.0894 241° Southwest 454 522 36,000  Level Oakland Center
11:27PM 36.2067 -120.2256 240° Southwest 458 527 36,000  Level Oakland Center
11:28PM 36.1422 -120.3603 239° Southwest 457 526 36,000  Level Oakland Center
11:29PM 36.0764 -120.4939 239° Southwest 457 526 36,000 -60 Level Oakland Center
11:30PM 36.0700 -120.6294 267° West 419 482 35,900  Descending Oakland Center
11:32PM 36.1464 -120.7258 314° West 412 474 36,000  Climbing Oakland Center
11:33PM 36.2939 -120.7339 357° North 453 521 36,000  Level Oakland Center
11:34PM 36.4222 -120.6894 16° North 472 543 36,000 120 Level Oakland Center
11:35PM 36.5497 -120.6489 14° North 474 545 36,300 420 Climbing Oakland Center
11:36PM 36.6767 -120.6081 14° North 472 543 36,900 360 Climbing Oakland Center
11:37PM 36.8031 -120.5697 14° North 467 537 37,100 240 Climbing Oakland Center
11:38PM 36.9286 -120.5314 14° North 467 537 37,400 240 Climbing Oakland Center
11:39PM 37.0553 -120.4947 13° North 468 539 37,700 240 Climbing Oakland Center
11:40PM 37.1803 -120.4539 15° North 466 536 37,900 120 Climbing Oakland Center
11:41PM 37.3067 -120.4167 13° North 466 536 38,000  Climbing Oakland Center
11:42PM 37.4342 -120.3764 14° North 470 541 38,000  Level Oakland Center
11:43PM 37.5608 -120.3389 13° North 470 541 38,000  Level Oakland Center
11:44PM 37.6897 -120.2992 14° North 475 547 38,000  Level Oakland Center
11:45PM 37.8211 -120.2569 14° North 485 558 38,000  Level Oakland Center
11:46PM 37.9786 -120.2064 14° North 487 560 38,000  Level Oakland Center
11:47PM 38.1094 -120.1639 14° North 488 562 38,000  Level Oakland Center
11:48PM 38.2400 -120.1244 13° North 484 557 38,000  Level Oakland Center
11:49PM 38.3714 -120.0844 13° North 484 557 38,000  Level Oakland Center
11:50PM 38.5028 -120.0444 13° North 487 560 38,000  Level Oakland Center
11:51PM 38.6314 -120.0047 14° North 482 555 38,000  Level Oakland Center
11:52PM 38.7567 -119.9647 14° North 469 540 38,000  Level Oakland Center
11:53PM 38.8856 -119.9278 13° North 474 545 38,000  Level Oakland Center
11:54PM 39.0122 -119.8922 12° North 476 548 38,000  Level Oakland Center
11:55PM 39.1439 -119.8550 12° North 481 554 38,000  Level Oakland Center
11:56PM 39.2758 -119.8194 12° North 482 555 38,000  Level Oakland Center
11:57PM 39.4350 -119.7756 12° North 483 556 38,000  Level Oakland Center
11:58PM 39.5653 -119.7372 13° North 478 550 38,000  Level Oakland Center
11:59PM 39.6950 -119.7008 12° North 475 547 38,000  Level Oakland Center
12:00AM 39.8244 -119.6639 12° North 474 545 38,000  Level Oakland Center
12:01AM 39.9536 -119.6250 13° North 474 545 38,000  Level Oakland Center
12:02AM 40.0839 -119.5842 13° North 477 549 38,000  Level Oakland Center
12:03AM 40.2131 -119.5453 13° North 476 548 38,000  Level Oakland Center
12:04AM 40.3431 -119.5067 13° North 478 550 38,000  Level Oakland Center
12:05AM 40.4719 -119.4675 13° North 474 545 38,000  Level Oakland Center
12:06AM 40.5850 -119.4350 12° North 473 544 38,000  Level Oakland Center
12:07AM 40.7306 -119.3933 12° North 473 544 38,000  Level Oakland Center
12:08AM 40.8583 -119.3578 12° North 478 550 38,000  Level Oakland Center
12:09AM 40.9819 -119.3214 13° North 475 547 38,000  Level Oakland Center
12:10AM 41.1261 -119.2792 12° North 474 545 38,000  Level Oakland Center
12:11AM 41.2494 -119.2417 13° North 472 543 38,000  Level Oakland Center
12:12AM 41.3847 -119.2028 12° North 475 547 38,000  Level Oakland Center
12:13AM 41.5139 -119.1625 13° North 477 549 38,000  Level Oakland Center
12:14AM 41.6442 -119.1208 13° North 475 547 38,000  Level Salt Lake Center
12:15AM 41.7686 -119.0814 13° North 477 549 38,000  Level Salt Lake Center
12:16AM 41.8900 -119.0444 13° North 472 543 38,000  Level Seattle Center
12:17AM 42.0364 -118.9956 14° North 478 550 38,000  Level Salt Lake Center
12:18AM 42.1603 -118.9572 13° North 477 549 38,000  Level Salt Lake Center
12:19AM 42.2836 -118.9197 13° North 474 545 38,000  Level Salt Lake Center
12:20AM 42.4144 -118.8772 13° North 473 544 38,000  Level Seattle Center
12:21AM 42.5369 -118.8383 13° North 474 545 38,000  Level Seattle Center
12:22AM 42.6583 -118.7983 14° North 470 541 38,000  Level Seattle Center
12:23AM 42.8003 -118.7519 13° North 469 540 38,000  Level Seattle Center
12:24AM 42.9214 -118.7122 14° North 468 539 38,000  Level Seattle Center
12:25AM 43.0433 -118.6750 13° North 468 539 38,000  Level Seattle Center
12:26AM 43.1919 -118.6258 14° North 467 537 38,000  Level Salt Lake Center
12:27AM 43.3172 -118.5858 13° North 465 535 38,000  Level Salt Lake Center
12:28AM 43.4425 -118.5469 13° North 463 533 38,000  Level Salt Lake Center
12:29AM 43.5653 -118.5025 15° North 460 529 38,000  Level Salt Lake Center
12:30AM 43.6903 -118.4600 14° North 462 532 38,000  Level Salt Lake Center
12:31AM 43.8153 -118.4156 14° North 465 535 38,000  Level Salt Lake Center
12:32AM 43.9361 -118.3556 20° North 467 537 38,000  Level Salt Lake Center
12:33AM 44.0750 -118.3106 13° North 461 531 38,000  Level Salt Lake Center
12:34AM 44.1656 -118.3900 328° Northwest 465 535 38,000  Level Seattle Center
12:35AM 44.2686 -118.4972 323° Northwest 462 532 38,100  Climbing Seattle Center
12:36AM 44.3719 -118.6017 324° Northwest 461 531 38,000 -60 Descending Seattle Center
12:37AM 44.4753 -118.7039 325° Northwest 458 527 38,000  Level Seattle Center
12:38AM 44.5769 -118.8094 324° Northwest 457 526 38,000 120 Level Seattle Center
12:39AM 44.6775 -118.9144 323° Northwest 453 521 38,300 180 Climbing Seattle Center
12:40AM 44.7789 -119.0172 324° Northwest 452 520 38,400 60 Climbing Seattle Center
12:41AM 44.8825 -119.1197 325° Northwest 457 526 38,500 240 Climbing Seattle Center
12:42AM 44.9853 -119.2217 325° Northwest 456 525 38,900 240 Climbing Seattle Center
12:43AM 45.0886 -119.3256 325° Northwest 458 527 39,000  Climbing Seattle Center
12:44AM 45.1917 -119.4267 325° Northwest 457 526 39,000  Level Seattle Center
12:45AM 45.3167 -119.5528 325° Northwest 462 532 39,000  Level Seattle Center
12:46AM 45.4233 -119.6528 327° Northwest 464 534 39,000  Level Seattle Center
12:47AM 45.5294 -119.7514 327° Northwest 460 529 39,000  Level Seattle Center
12:48AM 45.6339 -119.8575 325° Northwest 462 532 39,000  Level Seattle Center
12:49AM 45.7386 -119.9633 325° Northwest 465 535 39,000  Level Seattle Center
12:50AM 45.8425 -120.0733 324° Northwest 466 536 39,000  Level Seattle Center
12:51AM 45.9458 -120.1806 324° Northwest 462 532 39,000  Level Seattle Center
12:52AM 46.0503 -120.2867 325° Northwest 460 529 39,000  Level Seattle Center
12:53AM 46.1542 -120.3917 325° Northwest 460 529 39,000  Level Seattle Center
12:54AM 46.2569 -120.4983 324° Northwest 458 527 39,000  Level Seattle Center
12:55AM 46.3592 -120.6050 324° Northwest 455 524 39,000  Level Seattle Center
12:56AM 46.4617 -120.7117 324° Northwest 455 524 39,000  Level Seattle Center
12:57AM 46.5625 -120.8236 323° Northwest 457 526 39,000  Level Seattle Center
12:58AM 46.6653 -120.9239 326° Northwest 449 517 39,000  Level Seattle Center
12:59AM 46.7681 -121.0214 327° Northwest 442 509 39,000  Level Seattle Center
01:00AM 46.8681 -121.1206 326° Northwest 438 504 39,000  Level Seattle Center
01:01AM 46.9883 -121.2350 327° Northwest 431 496 39,000  Level Seattle Center
01:02AM 47.0714 -121.3167 326° Northwest 429 494 39,000  Level Seattle Center
01:03AM 47.1692 -121.4094 327° Northwest 425 489 39,000  Level Seattle Center
01:04AM 47.2847 -121.5214 327° Northwest 420 483 39,000  Level Seattle Center
01:06AM 47.3822 -121.6153 327° Northwest 423 487 39,000  Level Seattle Center
01:07AM 47.4797 -121.7067 328° Northwest 423 487 39,000  Level Seattle Center
01:08AM 47.5769 -121.7958 328° Northwest 419 482 39,000  Level Seattle Center
01:09AM 47.6750 -121.8833 329° Northwest 419 482 39,000  Level Seattle Center
01:10AM 47.7822 -121.8475 13° North 430 495 39,000  Level Seattle Center
01:11AM 47.8297 -121.6700 68° East 498 573 39,000  Level Seattle Center
01:12AM 47.8108 -121.4603 98° East 519 597 39,000  Level Seattle Center
01:13AM 47.7933 -121.2478 97° East 522 601 39,000 180 Level Seattle Center
01:14AM 47.7764 -121.0344 97° East 524 603 39,400 480 Climbing Seattle Center
01:15AM 47.7581 -120.7856 96° East 513 590 40,000 240 Climbing Seattle Center
01:16AM 47.7444 -120.5772 95° East 509 586 40,000  Level Seattle Center
01:17AM 47.7314 -120.3678 95° East 511 588 40,000  Level Seattle Center
01:18AM 47.7178 -120.1614 96° East 505 581 40,000  Level Seattle Center
01:19AM 47.7056 -119.9556 95° East 503 579 40,000  Level Seattle Center
01:20AM 47.6906 -119.7497 96° East 503 579 40,000  Level Seattle Center
01:21AM 47.6758 -119.5442 96° East 503 579 40,000  Level Seattle Center
01:22AM 47.6617 -119.3375 96° East 503 579 40,000  Level Seattle Center
01:23AM 47.6464 -119.1319 96° East 504 580 40,000  Level Seattle Center
01:24AM 47.6306 -118.9264 96° East 504 580 40,000  Level Seattle Center
01:25AM 47.6128 -118.7217 97° East 504 580 40,000  Level Seattle Center
01:26AM 47.5972 -118.5147 96° East 506 582 40,000  Level Seattle Center
01:27AM 47.5819 -118.3089 96° East 505 581 40,000  Level Seattle Center
01:28AM 47.5650 -118.1014 97° East 508 585 40,000  Level Seattle Center
01:29AM 47.5489 -117.8950 97° East 508 585 40,000  Level Seattle Center
01:30AM 47.5308 -117.6883 97° East 510 587 40,000  Level Seattle Center
01:31AM 47.5125 -117.4808 97° East 512 589 40,000  Level Seattle Center
01:32AM 47.4933 -117.2753 98° East 513 590 40,000  Level Seattle Center
01:33AM 47.4683 -117.0344 99° East 513 590 40,000  Level Seattle Center
01:34AM 47.4500 -116.8297 97° East 515 593 40,000  Level Seattle Center
01:35AM 47.4281 -116.6225 99° East 515 593 40,000  Level Seattle Center
01:36AM 47.4047 -116.4161 99° East 513 590 40,000  Level Seattle Center
01:37AM 47.3803 -116.2086 100° East 514 592 40,000  Level Seattle Center
01:38AM 47.3594 -116.0017 98° East 513 590 40,000  Level Seattle Center
01:39AM 47.3375 -115.7944 99° East 514 592 40,000  Level Seattle Center
01:40AM 47.3153 -115.6075 100° East 513 590 40,000  Level Seattle Center
01:41AM 47.2897 -115.3594 99° East 514 592 40,000  Level Seattle Center
01:42AM 47.2692 -115.1511 98° East 516 594 40,000  Level Seattle Center
01:43AM 47.2456 -114.9450 100° East 515 593 40,000  Level Seattle Center
01:44AM 47.2219 -114.7383 99° East 516 594 40,000  Level Seattle Center
01:45AM 47.1981 -114.5319 100° East 516 594 40,000  Level Seattle Center
01:45AM 47.1931 -114.4897 100° East 517 595 40,000  Level Salt Lake Center
01:46AM 47.1683 -114.2839 100° East 517 595 40,000  Level Salt Lake Center
01:47AM 47.1456 -114.0783 99° East 515 593 40,000  Level Salt Lake Center
01:48AM 47.1242 -113.8739 99° East 511 588 40,000  Level Salt Lake Center
01:49AM 47.1031 -113.6669 98° East 515 593 40,000  Level Salt Lake Center
01:50AM 47.0797 -113.4192 98° East 514 592 40,000  Level Salt Lake Center
01:51AM 47.0581 -113.2139 99° East 513 590 40,000  Level Salt Lake Center
01:52AM 47.0375 -113.0094 98° East 510 587 40,000  Level Salt Lake Center
01:53AM 47.0156 -112.7994 99° East 517 595 40,000  Level Salt Lake Center
01:54AM 46.9947 -112.5969 99° East 509 586 40,000  Level Salt Lake Center
01:55AM 46.9753 -112.3939 98° East 507 583 40,000  Level Salt Lake Center
01:56AM 46.9533 -112.1919 99° East 507 583 40,000  Level Salt Lake Center
01:57AM 46.9342 -111.9881 98° East 509 586 40,000  Level Salt Lake Center
01:58AM 46.9136 -111.7831 98° East 513 590 40,000  Level Salt Lake Center
01:59AM 46.8919 -111.5797 99° East 512 589 40,000  Level Salt Lake Center
02:00AM 46.8708 -111.3756 99° East 512 589 40,000  Level Salt Lake Center
02:01AM 46.8478 -111.1722 99° East 512 589 40,000  Level Salt Lake Center
02:02AM 46.8236 -110.9678 100° East 515 593 40,000  Level Salt Lake Center
02:03AM 46.7825 -110.7708 107° East 510 587 40,000  Level Salt Lake Center
02:04AM 46.7314 -110.5767 111° Southeast 515 593 40,000  Level Salt Lake Center
02:05AM 46.6728 -110.3503 111° Southeast 514 592 40,000  Level Salt Lake Center
02:06AM 46.6275 -110.1594 109° East 517 595 40,000  Level Salt Lake Center
02:07AM 46.5808 -109.9722 110° East 516 594 40,000  Level Salt Lake Center
02:08AM 46.5361 -109.7839 109° East 514 592 40,000  Level Salt Lake Center
02:09AM 46.4825 -109.5672 110° East 512 589 40,000  Level Salt Lake Center
02:10AM 46.3739 -109.4656 147° Southeast 485 558 40,000  Level Salt Lake Center
02:11AM 46.2514 -109.4208 166° South 481 554 40,000  Level Salt Lake Center
02:12AM 46.1606 -109.2461 127° Southeast 495 570 40,100 180 Climbing Salt Lake Center
02:13AM 46.1231 -109.0556 106° East 517 595 40,400 180 Climbing Salt Lake Center
02:14AM 46.0844 -108.8694 107° East 508 585 40,500 240 Climbing Salt Lake Center
02:15AM 46.0306 -108.6903 113° Southeast 507 583 40,900 240 Climbing Salt Lake Center
02:16AM 45.9678 -108.4833 114° Southeast 506 582 41,000  Climbing Salt Lake Center
02:17AM 45.9122 -108.3061 114° Southeast 508 585 41,000  Level Salt Lake Center
02:18AM 45.8531 -108.1289 116° Southeast 513 590 41,000  Level Salt Lake Center
02:19AM 45.7875 -107.9186 114° Southeast 516 594 41,000  Level Salt Lake Center
02:20AM 45.7344 -107.7339 112° Southeast 522 601 41,000  Level Salt Lake Center
02:21AM 45.6808 -107.5492 113° Southeast 525 604 41,000  Level Salt Lake Center
02:22AM 45.6261 -107.3639 113° Southeast 526 605 41,000  Level Salt Lake Center
02:23AM 45.5642 -107.1472 112° Southeast 529 609 41,000  Level Salt Lake Center
02:24AM 45.5131 -106.9600 111° Southeast 529 609 41,000  Level Salt Lake Center
02:25AM 45.4633 -106.7808 112° Southeast 515 593 41,000  Level Salt Lake Center
02:26AM 45.4119 -106.6003 112° Southeast 512 589 41,000  Level Salt Lake Center
02:27AM 45.3525 -106.3878 112° Southeast 515 593 41,000  Level Salt Lake Center
02:28AM 45.3014 -106.2075 112° Southeast 514 592 41,000  Level Salt Lake Center
02:29AM 45.2492 -106.0272 112° Southeast 515 593 41,000  Level Salt Lake Center
02:30AM 45.1875 -105.8158 112° Southeast 517 595 41,000  Level Salt Lake Center
02:31AM 45.1344 -105.6364 113° Southeast 517 595 41,000  Level Salt Lake Center
02:32AM 45.1072 -105.5469 113° Southeast 517 595 41,000  Level Denver Center
02:33AM 45.0544 -105.3672 113° Southeast 517 595 41,000  Level Denver Center
02:34AM 45.0022 -105.1869 112° Southeast 517 595 41,000  Level Denver Center
02:34AM 44.9664 -105.0653 113° Southeast 520 598 41,000  Level Salt Lake Center
02:35AM 44.9117 -104.8858 113° Southeast 519 597 41,000  Level Salt Lake Center
02:36AM 44.8578 -104.7081 113° Southeast 517 595 41,000  Level Salt Lake Center
02:37AM 44.8233 -104.5972 114° Southeast 518 596 41,000  Level Denver Center
02:38AM 44.7683 -104.4200 114° Southeast 517 595 41,000  Level Denver Center
02:39AM 44.7147 -104.2408 113° Southeast 519 597 41,000  Level Denver Center
02:40AM 44.6617 -104.0594 112° Southeast 522 601 41,000  Level Denver Center
02:41AM 44.6008 -103.8492 112° Southeast 521 600 41,000  Level Denver Center
02:42AM 44.5547 -103.6647 109° East 524 603 41,000  Level Denver Center
02:43AM 44.6017 -103.4936 69° East 547 629 41,000  Level Denver Center
02:44AM 44.6869 -103.2619 63° Northeast 555 639 41,000  Level Denver Center
02:45AM 44.7583 -103.0678 63° Northeast 557 641 41,000  Level Denver Center
02:46AM 44.8322 -102.8747 62° Northeast 560 644 41,000  Level Denver Center
02:47AM 44.8772 -102.7558 62° Northeast 564 649 41,000  Level Minneapolis Center
02:48AM 44.9503 -102.5583 62° Northeast 567 652 41,000  Level Minneapolis Center
02:49AM 45.0247 -102.3586 62° Northeast 571 657 41,000  Level Minneapolis Center
02:50AM 45.0983 -102.1575 63° Northeast 575 662 41,000  Level Minneapolis Center
02:51AM 45.1736 -101.9583 62° Northeast 574 661 41,000  Level Minneapolis Center
02:52AM 45.2481 -101.7572 62° Northeast 574 661 41,000  Level Minneapolis Center
02:53AM 45.3236 -101.5578 62° Northeast 573 659 41,000  Level Minneapolis Center
02:54AM 45.3992 -101.3564 62° Northeast 575 662 41,000  Level Minneapolis Center
02:55AM 45.4758 -101.1575 61° Northeast 574 661 41,000  Level Minneapolis Center
02:56AM 45.5544 -100.9558 61° Northeast 576 663 41,000 240 Level Minneapolis Center
02:57AM 45.6339 -100.7581 60° Northeast 573 659 41,500 240 Climbing Minneapolis Center
02:58AM 45.7092 -100.5600 61° Northeast 567 652 41,600 180 Climbing Minneapolis Center
02:59AM 45.7819 -100.3569 63° Northeast 568 654 41,900 180 Climbing Minneapolis Center
03:00AM 45.8528 -100.1550 63° Northeast 565 650 42,000  Climbing Minneapolis Center
03:01AM 45.9233 -99.9561 63° Northeast 559 643 42,000  Level Minneapolis Center
03:03AM 46.0681 -99.5539 62° Northeast 563 648 42,000  Level Minneapolis Center
03:04AM 46.1403 -99.3506 63° Northeast 566 651 42,000  Level Minneapolis Center
03:05AM 46.2119 -99.1483 63° Northeast 572 658 42,000  Level Minneapolis Center
03:06AM 46.2836 -98.9433 63° Northeast 574 661 42,000  Level Minneapolis Center
03:07AM 46.3564 -98.7411 62° Northeast 573 659 42,000  Level Minneapolis Center
03:08AM 46.4297 -98.5378 62° Northeast 573 659 42,000  Level Minneapolis Center
03:09AM 46.5183 -98.2897 62° Northeast 578 665 42,000  Level Minneapolis Center
03:10AM 46.5903 -98.0800 63° Northeast 582 670 42,000  Level Minneapolis Center
03:11AM 46.6642 -97.8731 62° Northeast 582 670 42,000  Level Minneapolis Center
03:12AM 46.7372 -97.6644 63° Northeast 582 670 42,000  Level Minneapolis Center
03:13AM 46.8092 -97.4556 63° Northeast 584 672 42,000  Level Minneapolis Center
03:14AM 46.8833 -97.2442 63° Northeast 588 677 42,000  Level Minneapolis Center
03:15AM 46.9575 -97.0356 62° Northeast 586 674 42,000  Level Minneapolis Center
03:16AM 47.0317 -96.8294 62° Northeast 578 665 42,000  Level Minneapolis Center
03:17AM 47.1050 -96.6192 63° Northeast 582 670 42,000  Level Minneapolis Center
03:18AM 47.1778 -96.4075 63° Northeast 583 671 42,000  Level Minneapolis Center
03:19AM 47.2503 -96.1939 63° Northeast 585 673 42,000  Level Minneapolis Center
03:20AM 47.3228 -95.9781 64° Northeast 589 678 42,000  Level Minneapolis Center
03:21AM 47.3972 -95.7517 64° Northeast 588 677 42,000  Level Minneapolis Center
03:22AM 47.4692 -95.5356 64° Northeast 587 676 42,000  Level Minneapolis Center
03:23AM 47.5422 -95.3228 63° Northeast 584 672 42,000  Level Minneapolis Center
03:24AM 47.6147 -95.1089 63° Northeast 582 670 42,000  Level Minneapolis Center
03:25AM 47.6861 -94.8897 64° Northeast 588 677 42,000  Level Minneapolis Center
03:26AM 47.7575 -94.6719 64° Northeast 588 677 42,000  Level Minneapolis Center
03:27AM 47.8292 -94.4517 64° Northeast 589 678 42,000  Level Minneapolis Center
03:28AM 47.9019 -94.2336 63° Northeast 589 678 42,000  Level Minneapolis Center
03:29AM 47.9761 -94.0153 63° Northeast 588 677 42,000  Level Minneapolis Center
03:30AM 48.0517 -93.7967 63° Northeast 589 678 42,000  Level Minneapolis Center
03:31AM 48.1261 -93.5772 63° Northeast 590 679 42,000  Level Minneapolis Center
03:32AM 48.1997 -93.3561 63° Northeast 590 679 42,000  Level Minneapolis Center
03:33AM 48.2708 -93.1319 64° Northeast 593 682 42,000  Level Minneapolis Center
03:34AM 48.2825 -92.8914 86° East 596 686 42,000  Level Minneapolis Center
03:35AM 48.1706 -92.7522 140° Southeast 558 642 42,000  Level Minneapolis Center
03:36AM 48.0433 -92.7744 187° South 495 570 42,000  Level Minneapolis Center
03:37AM 47.9419 -92.8611 210° Southwest 457 526 42,000  Level Minneapolis Center
03:38AM 47.8311 -92.9267 202° Southwest 450 518 42,000 60 Level Minneapolis Center
03:39AM 47.7078 -92.9572 189° South 450 518 42,200 120 Climbing Minneapolis Center
03:40AM 47.5836 -92.9897 190° South 452 520 42,300  Climbing Minneapolis Center
03:41AM 47.4578 -93.0203 189° South 453 521 42,300 60 Level Minneapolis Center
03:42AM 47.3269 -93.0500 189° South 453 521 42,500 180 Climbing Minneapolis Center
03:43AM 47.2014 -93.0864 191° South 455 524 42,700 60 Climbing Minneapolis Center
03:44AM 47.0789 -93.1181 190° South 451 519 42,700  Level Minneapolis Center
03:45AM 46.9572 -93.1514 191° South 445 512 42,800  Climbing Minneapolis Center
03:46AM 46.8347 -93.1858 191° South 446 513 42,800  Level Minneapolis Center
03:47AM 46.7117 -93.2200 191° South 449 517 42,900 60 Climbing Minneapolis Center
03:48AM 46.5900 -93.2581 192° South 448 516 43,000  Climbing Minneapolis Center
03:49AM 46.4681 -93.2975 193° South 448 516 43,000  Level Minneapolis Center
03:50AM 46.3478 -93.3392 193° South 446 513 43,000  Level Minneapolis Center
03:51AM 46.2269 -93.3792 193° South 446 513 43,000  Level Minneapolis Center
03:52AM 46.1108 -93.4186 193° South 446 513 43,000  Level Minneapolis Center
03:53AM 45.9889 -93.4564 192° South 448 516 43,000  Level Minneapolis Center
03:54AM 45.8681 -93.4942 192° South 447 514 43,000  Level Minneapolis Center
03:55AM 45.7475 -93.5347 193° South 446 513 43,000  Level Minneapolis Center
03:56AM 45.6275 -93.5744 193° South 445 512 43,000  Level Minneapolis Center
03:57AM 45.5081 -93.6142 193° South 443 510 43,000  Level Minneapolis Center
03:58AM 45.3894 -93.6550 194° South 441 507 43,000  Level Minneapolis Center
03:59AM 45.2483 -93.7064 194° South 439 505 43,000  Level Minneapolis Center
04:00AM 45.1319 -93.7514 195° South 437 503 43,000  Level Minneapolis Center
04:01AM 45.0158 -93.7967 195° South 437 503 43,000  Level Minneapolis Center
04:02AM 44.9000 -93.8431 196° South 437 503 43,000  Level Minneapolis Center
04:03AM 44.7847 -93.8892 196° South 436 502 43,000  Level Minneapolis Center
04:04AM 44.6681 -93.9353 196° South 438 504 43,000  Level Minneapolis Center
04:05AM 44.5514 -93.9817 196° South 439 505 43,000  Level Minneapolis Center
04:06AM 44.4344 -94.0258 195° South 438 504 43,000  Level Minneapolis Center
04:07AM 44.3181 -94.0719 196° South 438 504 43,000  Level Minneapolis Center
04:08AM 44.2008 -94.1172 195° South 439 505 43,000  Level Minneapolis Center
04:09AM 44.0850 -94.1628 196° South 437 503 43,000  Level Minneapolis Center
04:10AM 43.9678 -94.2100 196° South 439 505 43,000  Level Minneapolis Center
04:11AM 43.8392 -94.2608 196° South 438 504 43,000  Level Minneapolis Center
04:12AM 43.7208 -94.3061 195° South 439 505 43,000  Level Minneapolis Center
04:13AM 43.6028 -94.3528 196° South 440 506 43,000  Level Minneapolis Center
04:14AM 43.4850 -94.4019 197° South 442 509 43,000  Level Minneapolis Center
04:15AM 43.3675 -94.4500 197° South 442 509 43,000  Level Minneapolis Center
04:16AM 43.2489 -94.4972 196° South 444 511 43,000  Level Minneapolis Center
04:17AM 43.1311 -94.5475 197° South 444 511 43,000  Level Minneapolis Center
04:18AM 43.0133 -94.5978 197° South 443 510 43,000  Level Minneapolis Center
04:19AM 42.8961 -94.6461 197° South 441 507 43,000  Level Minneapolis Center
04:20AM 42.7783 -94.6961 197° South 443 510 43,000  Level Minneapolis Center
04:21AM 42.6572 -94.7497 198° South 444 511 43,000  Level Minneapolis Center
04:22AM 42.5389 -94.7992 197° South 445 512 43,000  Level Minneapolis Center
04:23AM 42.4203 -94.8486 197° South 445 512 43,000  Level Minneapolis Center
04:24AM 42.3031 -94.8992 198° South 443 510 43,000  Level Minneapolis Center
04:25AM 42.1856 -94.9486 197° South 441 507 43,000  Level Minneapolis Center
04:26AM 42.0689 -95.0003 198° South 441 507 43,000  Level Minneapolis Center
04:27AM 41.9539 -95.0564 200° South 439 505 43,000  Level Minneapolis Center
04:28AM 41.8378 -95.1081 198° South 439 505 43,000  Level Minneapolis Center
04:29AM 41.7233 -95.1600 199° South 435 501 43,000  Level Minneapolis Center
04:30AM 41.6089 -95.2119 199° South 432 497 43,000  Level Minneapolis Center
04:31AM 41.4956 -95.2650 199° South 431 496 43,000  Level Minneapolis Center
04:32AM 41.3819 -95.3181 199° South 430 495 43,000  Level Minneapolis Center
04:33AM 41.2678 -95.3700 199° South 430 495 43,000  Level Minneapolis Center
04:34AM 41.1522 -95.4128 196° South 429 494 43,000  Level Minneapolis Center
04:35AM 41.0986 -95.5436 241° Southwest 416 479 43,000  Level Minneapolis Center
04:36AM 41.0456 -95.6775 242° Southwest 409 471 43,000  Level Minneapolis Center
04:37AM 40.9858 -95.8086 239° Southwest 410 472 43,000  Level Minneapolis Center
04:38AM 40.9261 -95.9442 240° Southwest 418 481 43,000  Level Minneapolis Center
04:39AM 40.8636 -96.0769 238° Southwest 421 484 43,000  Level Minneapolis Center
04:40AM 40.7972 -96.2089 236° Southwest 426 490 43,000  Level Minneapolis Center
04:41AM 40.7311 -96.3419 237° Southwest 431 496 43,000  Level Minneapolis Center
04:42AM 40.6658 -96.4764 237° Southwest 433 498 43,000  Level Minneapolis Center
04:43AM 40.6017 -96.6133 238° Southwest 437 503 43,000  Level Minneapolis Center
04:44AM 40.5381 -96.7489 238° Southwest 435 501 43,000  Level Minneapolis Center
04:45AM 40.5047 -96.9008 254° West 441 507 43,000  Level Minneapolis Center
04:46AM 40.4900 -97.0614 263° West 442 509 43,000  Level Minneapolis Center
04:47AM 40.4761 -97.2211 264° West 442 509 43,000  Level Minneapolis Center
04:48AM 40.4617 -97.3933 264° West 441 507 43,000  Level Minneapolis Center
04:49AM 40.4483 -97.5517 264° West 438 504 43,000  Level Minneapolis Center
04:50AM 40.4333 -97.7089 263° West 434 499 43,000  Level Minneapolis Center
04:51AM 40.3736 -97.8469 240° Southwest 434 499 43,000  Level Minneapolis Center
04:52AM 40.3125 -97.9800 239° Southwest 428 493 43,000  Level Minneapolis Center
04:53AM 40.2519 -98.1125 239° Southwest 424 488 43,000  Level Minneapolis Center
04:54AM 40.1900 -98.2456 239° Southwest 425 489 43,000  Level Minneapolis Center
04:55AM 40.1283 -98.3817 239° Southwest 430 495 43,000  Level Minneapolis Center
04:57AM 40.0067 -98.6492 239° Southwest 427 491 43,000  Level Minneapolis Center
04:58AM 39.9447 -98.7806 238° Southwest 425 489 43,000  Level Minneapolis Center
04:59AM 39.8844 -98.9144 240° Southwest 426 490 43,000  Level Minneapolis Center
05:00AM 39.8603 -98.9686 240° Southwest 426 490 43,000  Level Denver Center
05:01AM 39.8003 -99.1031 240° Southwest 427 491 43,000  Level Denver Center
05:02AM 39.7408 -99.2375 240° Southwest 427 491 43,000  Level Denver Center
05:03AM 39.6814 -99.3711 240° Southwest 428 493 43,000  Level Denver Center
05:04AM 39.6236 -99.5050 241° Southwest 425 489 43,000  Level Denver Center
05:05AM 39.5656 -99.6392 241° Southwest 424 488 43,000  Level Denver Center
05:06AM 39.5083 -99.7719 241° Southwest 422 486 43,000  Level Denver Center
05:07AM 39.4542 -99.8978 241° Southwest 424 488 43,000  Level Denver Center
05:08AM 39.3908 -100.0475 241° Southwest 426 490 43,000  Level Denver Center
05:09AM 39.3367 -100.1761 241° Southwest 424 488 43,000  Level Denver Center
05:10AM 39.2817 -100.3042 241° Southwest 425 489 43,000  Level Denver Center
05:11AM 39.2256 -100.4311 240° Southwest 425 489 43,000  Level Denver Center
05:12AM 39.1603 -100.5814 241° Southwest 430 495 43,000  Level Denver Center
05:13AM 39.1033 -100.7067 240° Southwest 426 490 43,000  Level Denver Center
05:14AM 39.0464 -100.8347 240° Southwest 427 491 43,000  Level Denver Center
05:15AM 38.9836 -100.9797 241° Southwest 433 498 43,000  Level Denver Center
05:16AM 38.9272 -101.1047 240° Southwest 428 493 43,000  Level Denver Center
05:17AM 38.8719 -101.2322 241° Southwest 427 491 43,000  Level Denver Center
05:18AM 38.8083 -101.3789 241° Southwest 423 487 43,000  Level Denver Center
05:19AM 38.7544 -101.5064 242° Southwest 426 490 43,000  Level Denver Center
05:20AM 38.7006 -101.6317 241° Southwest 424 488 43,000  Level Denver Center
05:21AM 38.6389 -101.7800 242° Southwest 423 487 43,000  Level Denver Center
05:22AM 38.5847 -101.9058 241° Southwest 423 487 43,000  Level Denver Center
05:23AM 38.5314 -102.0353 242° Southwest 428 493 43,000  Level Denver Center
05:24AM 38.4794 -102.1611 242° Southwest 422 486 43,000  Level Denver Center
05:25AM 38.4203 -102.3106 243° Southwest 424 488 43,000  Level Denver Center
05:26AM 38.3703 -102.4394 244° Southwest 425 489 43,000  Level Denver Center
05:27AM 38.3178 -102.5694 243° Southwest 430 495 43,000  Level Denver Center
05:28AM 38.2597 -102.7206 244° Southwest 428 493 43,000  Level Denver Center
05:29AM 38.2092 -102.8500 244° Southwest 427 491 43,000  Level Denver Center
05:30AM 38.1603 -102.9781 244° Southwest 423 487 43,000  Level Denver Center
05:31AM 38.1117 -103.1086 245° Southwest 427 491 43,000  Level Denver Center
05:32AM 38.0569 -103.2536 244° Southwest 428 493 43,000  Level Denver Center
05:33AM 38.0078 -103.3831 244° Southwest 426 490 43,000  Level Denver Center
05:34AM 37.9486 -103.5336 244° Southwest 427 491 43,000  Level Denver Center
05:35AM 37.8986 -103.6622 244° Southwest 426 490 43,000  Level Denver Center
05:36AM 37.8475 -103.7914 243° Southwest 428 493 43,000  Level Denver Center
05:37AM 37.7886 -103.9417 244° Southwest 430 495 43,000  Level Denver Center
05:38AM 37.7400 -104.0697 244° Southwest 429 494 43,000  Level Denver Center
05:39AM 37.6914 -104.1992 245° Southwest 431 496 43,000  Level Denver Center
05:40AM 37.6350 -104.3486 245° Southwest 427 491 43,000  Level Denver Center
05:41AM 37.5864 -104.4781 245° Southwest 428 493 43,000  Level Denver Center
05:42AM 37.5372 -104.6078 244° Southwest 429 494 43,000  Level Denver Center
05:43AM 37.4858 -104.7369 243° Southwest 431 496 43,000  Level Denver Center
05:44AM 37.4278 -104.8869 244° Southwest 429 494 43,000  Level Denver Center
05:45AM 37.3781 -105.0150 244° Southwest 426 490 43,000  Level Denver Center
05:46AM 37.3300 -105.1436 245° Southwest 424 488 43,000  Level Denver Center
05:47AM 37.2739 -105.2933 245° Southwest 424 488 43,000  Level Denver Center
05:48AM 37.2272 -105.4214 245° Southwest 422 486 43,000  Level Denver Center
05:49AM 37.1803 -105.5475 245° Southwest 418 481 43,000  Level Denver Center
05:50AM 37.1336 -105.6783 246° West 428 493 43,000  Level Denver Center
05:51AM 37.0800 -105.8286 246° West 423 487 43,000  Level Denver Center
05:52AM 37.0350 -105.9547 246° West 423 487 43,000  Level Denver Center
05:53AM 36.9869 -106.0869 246° West 426 490 43,000  Level Denver Center
05:54AM 36.9333 -106.2342 246° West 424 488 43,000  Level Denver Center
05:55AM 36.8892 -106.3661 247° West 429 494 43,000  Level Denver Center
05:56AM 36.8453 -106.4953 247° West 424 488 43,000  Level Denver Center
05:57AM 36.7936 -106.6425 246° West 414 476 43,000  Level Denver Center
05:58AM 36.7494 -106.7661 246° West 408 470 43,000  Level Denver Center
05:59AM 36.7058 -106.8892 246° West 406 467 43,000  Level Denver Center
06:00AM 36.6653 -107.0131 248° West 405 466 43,000  Level Denver Center
06:01AM 36.6158 -107.1575 247° West 406 467 43,000  Level Denver Center
06:02AM 36.5742 -107.2817 247° West 406 467 43,000  Level Denver Center
06:03AM 36.5333 -107.4064 248° West 407 468 43,000  Level Denver Center
06:04AM 36.4911 -107.5314 247° West 408 470 43,000  Level Denver Center
06:05AM 36.4439 -107.6789 248° West 412 474 43,000  Level Denver Center
06:06AM 36.4017 -107.8047 247° West 412 474 43,000  Level Denver Center
06:07AM 36.3600 -107.9322 248° West 416 479 43,000  Level Denver Center
06:08AM 36.3108 -108.0811 248° West 416 479 43,000  Level Denver Center
06:09AM 36.2675 -108.2083 247° West 417 480 43,000  Level Denver Center
06:10AM 36.2244 -108.3367 247° West 420 483 43,000  Level Denver Center
06:11AM 36.1822 -108.4653 248° West 421 484 43,000  Level Denver Center
06:12AM 36.1342 -108.6178 249° West 425 489 43,000  Level Denver Center
06:13AM 36.1211 -108.6644 251° West 430 495 43,000  Level Albuquerque Center
06:14AM 36.1022 -108.8117 261° West 435 501 43,000  Level Albuquerque Center
06:14AM 36.0889 -108.9006 260° West 443 510 43,000  Level Denver Center
06:15AM 36.0647 -109.0542 259° West 437 503 43,000  Level Denver Center
06:16AM 36.0408 -109.1908 258° West 429 494 43,000  Level Denver Center
06:17AM 36.0294 -109.2592 258° West 427 491 43,000  Level Albuquerque Center
06:18AM 36.0069 -109.3994 259° West 432 497 43,000  Level Albuquerque Center
06:18AM 35.9914 -109.4922 258° West 432 497 43,000  Level Denver Center
06:19AM 35.9694 -109.6300 259° West 428 493 43,000  Level Denver Center
06:20AM 35.9450 -109.7683 258° West 430 495 43,000  Level Denver Center
06:21AM 35.9167 -109.9292 258° West 428 493 43,000  Level Denver Center
06:22AM 35.8906 -110.0667 257° West 429 494 43,000  Level Denver Center
06:23AM 35.8644 -110.1950 256° West 431 496 43,000  Level Denver Center
06:24AM 35.8464 -110.2692 253° West 426 490 43,000  Level Albuquerque Center
06:25AM 35.8233 -110.4075 258° West 428 493 43,000  Level Albuquerque Center
06:26AM 35.7969 -110.5431 257° West 426 490 43,000  Level Albuquerque Center
06:27AM 35.7733 -110.6803 258° West 427 491 43,000  Level Albuquerque Center
06:28AM 35.7444 -110.8400 257° West 429 494 43,000  Level Albuquerque Center
06:29AM 35.7189 -110.9756 257° West 425 489 43,000  Level Albuquerque Center
06:30AM 35.6928 -111.1119 257° West 427 491 43,000  Level Albuquerque Center
06:31AM 35.6658 -111.2700 258° West 423 487 43,000  Level Albuquerque Center
06:32AM 35.6408 -111.4047 257° West 422 486 43,000  Level Albuquerque Center
06:33AM 35.6153 -111.5339 256° West 427 491 43,000  Level Albuquerque Center
06:34AM 35.5881 -111.6719 256° West 421 484 43,000  Level Albuquerque Center
06:35AM 35.5614 -111.8106 257° West 420 483 43,000  Level Albuquerque Center
06:36AM 35.5361 -111.9478 257° West 416 479 43,000  Level Albuquerque Center
06:37AM 35.5094 -112.0853 257° West 415 478 43,000  Level Albuquerque Center
06:37AM 35.4997 -112.1408 258° West 416 479 43,000  Level Los Angeles Center
06:38AM 35.4842 -112.2236 257° West 416 479 43,000  Level Albuquerque Center
06:39AM 35.4592 -112.3597 257° West 412 474 43,000  Level Albuquerque Center
06:39AM 35.4497 -112.4144 258° West 415 478 43,000  Level Los Angeles Center
06:40AM 35.4267 -112.5528 258° West 414 476 43,000  Level Los Angeles Center
06:41AM 35.3978 -112.7142 258° West 412 474 43,000  Level Los Angeles Center
06:42AM 35.3744 -112.8528 258° West 413 475 43,000  Level Los Angeles Center
06:43AM 35.3631 -112.9217 259° West 417 480 43,000  Level Albuquerque Center
06:43AM 35.3481 -113.0072 258° West 417 480 43,000  Level Los Angeles Center
06:44AM 35.3231 -113.1467 258° West 418 481 43,000  Level Los Angeles Center
06:45AM 35.2997 -113.2842 258° West 415 478 43,000  Level Los Angeles Center
06:46AM 35.2797 -113.3961 258° West 420 483 43,000  Level Los Angeles Center
06:47AM 35.2536 -113.5328 257° West 416 479 43,000  Level Los Angeles Center
06:48AM 35.2283 -113.6683 257° West 412 474 43,000  Level Los Angeles Center
06:49AM 35.1981 -113.8339 257° West 416 479 43,000  Level Los Angeles Center
06:50AM 35.1714 -113.9739 257° West 414 476 43,000  Level Los Angeles Center
06:51AM 35.1475 -114.1122 258° West 416 479 43,000  Level Los Angeles Center
06:52AM 35.1242 -114.2508 258° West 417 480 43,000  Level Los Angeles Center
06:53AM 35.0997 -114.3911 258° West 421 484 43,000  Level Los Angeles Center
06:54AM 35.0747 -114.5314 258° West 421 484 43,000  Level Los Angeles Center
06:55AM 35.0525 -114.6439 256° West 424 488 43,000  Level Los Angeles Center
06:56AM 35.0269 -114.7836 257° West 422 486 43,000  Level Los Angeles Center
06:57AM 35.0014 -114.9217 257° West 419 482 43,000  Level Los Angeles Center
06:58AM 34.9753 -115.0611 257° West 420 483 43,000  Level Los Angeles Center
06:59AM 34.9531 -115.2017 259° West 421 484 43,000  Level Los Angeles Center
07:00AM 34.9306 -115.3364 259° West 419 482 43,000  Level Los Angeles Center
07:01AM 34.9039 -115.4778 257° West 418 481 43,000  Level Los Angeles Center
07:02AM 34.8731 -115.6436 257° West 428 493 43,000  Level Los Angeles Center
07:03AM 34.8444 -115.7819 256° West 424 488 43,000  Level Los Angeles Center
07:04AM 34.8158 -115.9214 256° West 425 489 43,000  Level Los Angeles Center
07:05AM 34.7878 -116.0611 256° West 426 490 43,000  Level Los Angeles Center
07:06AM 34.7619 -116.2019 257° West 427 491 43,000  Level Los Angeles Center
07:07AM 34.7419 -116.3425 260° West 424 488 43,000  Level Los Angeles Center
07:08AM 34.7211 -116.4814 260° West 421 484 43,000  Level Los Angeles Center
07:09AM 34.6969 -116.6214 258° West 423 487 43,000  Level Los Angeles Center
07:10AM 34.6717 -116.7617 258° West 425 489 43,000  Level Los Angeles Center
07:11AM 34.6475 -116.9022 258° West 423 487 43,000  Level Los Angeles Center
07:12AM 34.6239 -117.0453 259° West 423 487 43,000  Level Los Angeles Center
07:13AM 34.5981 -117.1825 257° West 423 487 43,000  Level Los Angeles Center
07:14AM 34.5714 -117.3231 257° West 425 489 43,000  Level Los Angeles Center
07:15AM 34.5461 -117.4644 258° West 426 490 43,000  Level Los Angeles Center
07:16AM 34.5200 -117.6050 257° West 425 489 43,000  Level Los Angeles Center
07:17AM 34.4947 -117.7486 258° West 431 496 43,000  Level Los Angeles Center
07:18AM 34.4678 -117.8886 257° West 428 493 43,000  Level Los Angeles Center
07:19AM 34.4431 -118.0306 258° West 430 495 43,000  Level Los Angeles Center
07:20AM 34.4225 -118.1589 259° West 431 496 43,000  Level Los Angeles Center
07:21AM 34.3989 -118.2983 258° West 428 493 43,000  Level Los Angeles Center
07:22AM 34.3753 -118.4386 259° West 428 493 43,000  Level Los Angeles Center
07:23AM 34.3483 -118.5783 257° West 427 491 43,000  Level Los Angeles Center
07:24AM 34.3239 -118.7153 258° West 420 483 43,000  Level Los Angeles Center
07:25AM 34.3011 -118.8536 259° West 422 486 43,000  Level Los Angeles Center
07:26AM 34.2797 -118.9906 259° West 417 480 43,000  Level Los Angeles Center
07:27AM 34.2597 -119.1258 260° West 413 475 43,000  Level Los Angeles Center
07:28AM 34.2378 -119.2628 259° West 415 478 43,000  Level Los Angeles Center
07:29AM 34.2172 -119.3983 260° West 414 476 43,000 -180 Level Los Angeles Center
07:30AM 34.2936 -119.4978 313° West 432 497 42,700 -600 Descending Los Angeles Center
07:31AM 34.4214 -119.4542 16° North 498 573 41,900 -1,560 Descending Los Angeles Center
07:32AM 34.4894 -119.2442 68° East 573 659 39,600 -2,400 Descending Los Angeles Center
07:33AM 34.5394 -119.1078 66° East 559 643 37,200 -2,400 Descending Los Angeles Center
07:34AM 34.5969 -118.9339 68° East 555 639 34,800 -2,280 Descending Los Angeles Center
07:35AM 34.6522 -118.7656 68° East 539 620 32,700 -2,100 Descending Los Angeles Center
07:36AM 34.7036 -118.6056 69° East 513 590 30,600 -2,220 Descending Los Angeles Center
07:37AM 34.7597 -118.4350 68° East 485 558 28,300 -2,280 Descending Los Angeles Center
07:38AM 34.8044 -118.2900 69° East 466 536 26,100 -2,400 Descending Los Angeles Center
07:39AM 34.8028 -118.1303 91° East 475 547 23,500 -2,400 Descending Los Angeles Center
07:40AM 34.7978 -117.9742 92° East 468 539 21,300 -2,100 Descending Los Angeles Center
07:41AM 34.7936 -117.8253 92° East 449 517 19,300 -1,860 Descending Los Angeles Center
07:42AM 34.7911 -117.6847 91° East 427 491 17,600 -1,800 Descending Los Angeles Center
07:43AM 34.7867 -117.5536 92° East 401 461 15,700 -1,800 Descending Los Angeles Center
07:44AM 34.7872 -117.4297 90° East 382 440 14,000 -1,620 Descending Los Angeles Center
07:45AM 34.7539 -117.3236 111° Southeast 363 418 12,500 -1,320 Descending Los Angeles Center
07:46AM 34.6669 -117.3017 168° South 343 395 11,400 -1,200 Descending Los Angeles Center
07:47AM 34.6153 -117.3703 228° Southwest 307 353 10,200 -1,260 Descending Los Angeles Center
07:48AM 34.6067 -117.4597 263° West 281 323 8,900 -1,320 Descending Los Angeles Center
07:50AM 34.5539 -117.5262 276° West  Level FlightAware Approximate
07:57AM 34.6294 -118.0845 239° Southwest  Level Estimated